Terminal Aerodrome Forecast
Issued by NWS

Home | Current Version | Previous Version | Text Only | Print | Product List | Glossary On
Versions: 1 2 3 4 5 6 7 8 9 10 11 12 13 14 15 16 17 18 19
779
FTUS43 KMQT 051120
TAFIWD
TAF
KIWD 051120Z 0512/0612 24008KT P6SM BKN015
     FM051600 22006KT P6SM SCT050
     FM052000 16006KT P6SM BKN100
     FM052300 15008KT P6SM VCSH BKN050
     FM060200 16010KT P6SM VCSH OVC030
     FM060600 18011KT P6SM OVC025
     FM060800 19010KT P6SM OVC015=

USA.gov is the U.S. government's official web portal to all federal, state and local government web resources and services.